createdAt,value
2022-10-17T00:01:34.609Z,77.80
2022-10-17T00:04:01.208Z,78.00
2022-10-17T00:06:27.855Z,77.90
2022-10-17T00:08:54.509Z,78.60
2022-10-17T00:11:23.890Z,78.40
2022-10-17T00:13:53.741Z,78.30
2022-10-17T00:16:38.680Z,78.40
2022-10-17T00:19:06.745Z,78.50
2022-10-17T00:21:34.107Z,78.90
2022-10-17T00:24:01.059Z,79.20
2022-10-17T00:26:29.586Z,79.30
2022-10-17T00:28:56.356Z,78.70
2022-10-17T00:31:24.348Z,79.00
2022-10-17T00:33:51.752Z,79.60
2022-10-17T00:36:23.633Z,79.00
2022-10-17T00:38:52.382Z,79.00
2022-10-17T00:41:21.211Z,78.40
2022-10-17T00:43:50.861Z,78.50
2022-10-17T00:46:17.823Z,78.70
2022-10-17T00:48:44.952Z,79.50
2022-10-17T00:51:11.631Z,79.50
2022-10-17T00:53:39.996Z,79.30
2022-10-17T00:56:06.992Z,79.30
2022-10-17T00:58:33.809Z,79.40
2022-10-17T01:01:02.585Z,79.10
2022-10-17T01:03:29.341Z,79.30
2022-10-17T01:05:56.613Z,79.40
2022-10-17T01:08:23.291Z,80.60
2022-10-17T01:11:31.417Z,80.90
2022-10-17T01:14:05.963Z,81.80
2022-10-17T01:16:37.184Z,80.50
2022-10-17T01:19:31.561Z,80.20
2022-10-17T01:22:07.162Z,79.80
2022-10-17T01:25:02.976Z,80.10
2022-10-17T01:28:16.300Z,79.90
2022-10-17T01:30:55.404Z,79.80
2022-10-17T01:33:59.760Z,80.10
2022-10-17T01:36:32.742Z,79.60
2022-10-17T01:39:08.113Z,79.80
2022-10-17T01:41:45.760Z,79.90
2022-10-17T01:44:37.743Z,80.10
2022-10-17T01:47:09.352Z,80.00
2022-10-17T01:49:40.791Z,80.40
2022-10-17T01:52:12.487Z,80.40
2022-10-17T01:54:51.243Z,80.40
2022-10-17T01:57:29.591Z,80.70
2022-10-17T01:59:57.307Z,81.80
2022-10-17T02:02:26.317Z,80.80
2022-10-17T02:04:55.478Z,80.10
2022-10-17T02:07:22.453Z,80.10
2022-10-17T02:09:49.060Z,79.70
2022-10-17T02:12:43.144Z,79.50
2022-10-17T02:15:31.302Z,79.40
2022-10-17T02:18:02.938Z,79.20
2022-10-17T02:20:48.955Z,79.30
2022-10-17T02:23:28.734Z,79.30
2022-10-17T02:26:07.035Z,79.90
2022-10-17T02:28:44.600Z,80.00
2022-10-17T02:31:19.864Z,80.20
2022-10-17T02:33:58.940Z,80.60
2022-10-17T02:36:38.251Z,80.60
2022-10-17T02:39:06.769Z,80.10
2022-10-17T02:41:35.292Z,80.10
2022-10-17T02:44:03.616Z,80.60
2022-10-17T02:46:32.774Z,79.90
2022-10-17T02:49:06.805Z,79.80
2022-10-17T02:51:43.080Z,80.00
2022-10-17T02:54:34.418Z,80.30
2022-10-17T02:57:08.273Z,79.80
2022-10-17T02:59:36.779Z,79.50
2022-10-17T03:02:05.151Z,79.40
2022-10-17T03:04:32.425Z,79.20
2022-10-17T03:06:59.120Z,79.00
2022-10-17T03:09:25.809Z,78.80
2022-10-17T03:11:52.428Z,78.80
2022-10-17T03:14:19.086Z,78.80
2022-10-17T03:16:45.724Z,78.90
2022-10-17T03:19:12.368Z,78.90
2022-10-17T03:21:39.273Z,79.00
2022-10-17T03:24:06.186Z,79.40
2022-10-17T03:26:32.843Z,79.30
2022-10-17T03:28:59.544Z,80.00
2022-10-17T03:31:26.190Z,79.80
2022-10-17T03:33:52.879Z,79.70
2022-10-17T03:36:19.877Z,79.40
2022-10-17T03:38:47.067Z,79.10
2022-10-17T03:41:14.037Z,79.00
2022-10-17T03:43:40.898Z,78.90
2022-10-17T03:46:07.924Z,78.70
2022-10-17T03:48:34.705Z,78.70
2022-10-17T03:51:04.551Z,78.70
2022-10-17T03:53:31.191Z,78.90
2022-10-17T03:56:08.446Z,79.20
2022-10-17T03:58:35.061Z,79.10
2022-10-17T04:01:06.413Z,79.00
2022-10-17T04:03:33.488Z,79.00
2022-10-17T04:06:03.884Z,79.50
2022-10-17T04:08:30.569Z,80.50
2022-10-17T04:11:06.109Z,79.90
2022-10-17T04:13:33.281Z,79.60
2022-10-17T04:16:11.317Z,79.70
2022-10-17T04:18:38.069Z,79.40
2022-10-17T04:21:06.101Z,80.40
2022-10-17T04:23:33.467Z,80.70
2022-10-17T04:26:02.424Z,79.90
2022-10-17T04:28:29.858Z,79.70
2022-10-17T04:31:07.893Z,79.40
2022-10-17T04:33:35.567Z,79.30
2022-10-17T04:36:05.460Z,79.20
2022-10-17T04:38:32.982Z,79.30
2022-10-17T04:41:03.919Z,79.40
2022-10-17T04:43:31.439Z,80.00
2022-10-17T04:45:59.036Z,80.10
2022-10-17T04:48:25.673Z,79.90
2022-10-17T04:50:55.636Z,80.00
2022-10-17T04:53:23.922Z,80.20
2022-10-17T04:55:51.234Z,80.20
2022-10-17T04:58:17.996Z,80.30
2022-10-17T05:00:44.660Z,80.00
2022-10-17T05:03:11.476Z,80.00
2022-10-17T05:05:39.289Z,80.20
2022-10-17T05:08:07.069Z,80.30
2022-10-17T05:10:42.017Z,80.60
2022-10-17T05:13:09.612Z,80.40
2022-10-17T05:15:37.299Z,80.60
2022-10-17T05:18:06.828Z,80.70
2022-10-17T05:20:33.563Z,80.80
2022-10-17T05:23:02.932Z,81.50
2022-10-17T05:25:29.580Z,81.20
2022-10-17T05:27:56.226Z,81.40
2022-10-17T05:30:22.864Z,81.30
2022-10-17T05:32:53.623Z,81.00
2022-10-17T05:35:20.580Z,81.30
2022-10-17T05:37:47.913Z,81.10
2022-10-17T05:40:14.603Z,81.20
2022-10-17T05:42:46.519Z,81.20
2022-10-17T05:45:13.262Z,81.20
2022-10-17T05:47:40.236Z,81.50
2022-10-17T05:50:08.396Z,80.80
2022-10-17T05:52:35.455Z,80.90
2022-10-17T05:55:02.259Z,80.80
2022-10-17T05:57:28.861Z,80.90
2022-10-17T05:59:55.479Z,80.80
2022-10-17T06:02:22.207Z,80.70
2022-10-17T06:04:50.026Z,80.80
2022-10-17T06:07:17.211Z,81.10
2022-10-17T06:09:43.816Z,80.80
2022-10-17T06:12:10.468Z,81.30
2022-10-17T06:14:37.084Z,81.00
2022-10-17T06:17:04.177Z,81.00
2022-10-17T06:19:30.909Z,81.00
2022-10-17T06:21:57.538Z,81.40
2022-10-17T06:24:24.161Z,81.80
2022-10-17T06:26:51.163Z,81.50
2022-10-17T06:29:18.017Z,81.30
2022-10-17T06:31:44.625Z,81.80
2022-10-17T06:34:11.367Z,82.30
2022-10-17T06:36:37.987Z,81.80
2022-10-17T06:39:04.849Z,83.40
2022-10-17T06:41:31.515Z,82.00
2022-10-17T06:43:58.168Z,83.20
2022-10-17T06:46:26.751Z,82.40
2022-10-17T06:48:53.354Z,82.20
2022-10-17T06:51:19.997Z,82.00
2022-10-17T06:53:47.149Z,82.00
2022-10-17T06:56:13.863Z,81.70
2022-10-17T06:58:40.947Z,82.30
2022-10-17T07:01:13.044Z,81.60
2022-10-17T07:03:41.095Z,81.80
2022-10-17T07:06:11.210Z,81.40
2022-10-17T07:08:38.136Z,81.80
2022-10-17T07:11:19.711Z,82.10
2022-10-17T07:13:46.962Z,81.40
2022-10-17T07:16:14.791Z,82.00
2022-10-17T07:18:41.828Z,82.00
2022-10-17T07:21:08.858Z,82.50
2022-10-17T07:23:37.234Z,82.70
2022-10-17T07:26:09.448Z,82.40
2022-10-17T07:28:38.426Z,82.70
2022-10-17T07:31:10.806Z,83.40
2022-10-17T07:33:37.926Z,84.00
2022-10-17T07:36:05.728Z,84.00
2022-10-17T07:38:32.714Z,84.10
2022-10-17T07:41:02.199Z,83.70
2022-10-17T07:43:29.343Z,84.00
2022-10-17T07:45:56.510Z,83.40
2022-10-17T07:48:24.649Z,83.80
2022-10-17T07:50:51.624Z,83.40
2022-10-17T07:53:18.831Z,83.50
2022-10-17T07:55:46.412Z,84.10
2022-10-17T07:58:14.428Z,84.70
2022-10-17T08:00:41.596Z,85.30
2022-10-17T08:03:08.483Z,85.00
2022-10-17T08:05:35.646Z,84.50
2022-10-17T08:08:02.948Z,84.60
2022-10-17T08:10:29.703Z,84.20
2022-10-17T08:12:57.640Z,84.10
2022-10-17T08:15:29.357Z,84.30
2022-10-17T08:17:59.126Z,84.20
2022-10-17T08:20:25.839Z,84.80
2022-10-17T08:22:56.086Z,84.50
2022-10-17T08:25:23.467Z,84.50
2022-10-17T08:27:50.528Z,85.50
2022-10-17T08:30:17.919Z,85.70
2022-10-17T08:32:44.795Z,84.40
2022-10-17T08:35:11.713Z,84.80
2022-10-17T08:37:38.364Z,85.10
2022-10-17T08:40:05.641Z,84.20
2022-10-17T08:42:50.685Z,84.40
2022-10-17T08:45:37.022Z,84.60
2022-10-17T08:48:12.416Z,84.70
2022-10-17T08:50:48.955Z,86.10
2022-10-17T08:53:32.880Z,84.40
2022-10-17T08:56:04.734Z,84.00
2022-10-17T08:58:32.883Z,84.00
2022-10-17T09:01:17.635Z,84.20
2022-10-17T09:04:07.605Z,84.70
2022-10-17T09:06:42.271Z,85.70
2022-10-17T09:09:25.052Z,85.10
2022-10-17T09:11:57.560Z,83.80
2022-10-17T09:14:43.096Z,84.30
2022-10-17T09:17:24.756Z,84.00
2022-10-17T09:20:10.259Z,84.20
2022-10-17T09:22:58.520Z,84.10
2022-10-17T09:25:26.232Z,85.30
2022-10-17T09:28:03.323Z,85.60
2022-10-17T09:30:59.472Z,85.60
2022-10-17T09:33:42.195Z,84.80
2022-10-17T09:36:17.352Z,84.30
2022-10-17T09:38:47.761Z,83.20
2022-10-17T09:44:24.154Z,82.50
2022-10-17T09:47:19.874Z,82.20
2022-10-17T09:49:48.098Z,82.20
2022-10-17T09:52:22.720Z,81.40
2022-10-17T09:54:50.517Z,81.50
2022-10-17T09:57:19.258Z,81.30
2022-10-17T10:00:01.629Z,81.00
2022-10-17T10:02:30.747Z,80.60
2022-10-17T10:05:05.896Z,80.00
2022-10-17T10:07:38.632Z,79.80
2022-10-17T10:10:27.757Z,80.00
2022-10-17T10:13:13.087Z,78.90
2022-10-17T10:15:45.303Z,78.70
2022-10-17T10:21:07.035Z,78.50
2022-10-17T10:23:34.821Z,77.00
2022-10-17T10:26:21.483Z,76.30
2022-10-17T10:29:03.044Z,75.60
2022-10-17T10:31:33.448Z,75.20
2022-10-17T10:34:03.075Z,75.10
2022-10-17T10:36:52.381Z,75.40
2022-10-17T10:39:33.090Z,75.80
2022-10-17T10:42:02.085Z,76.40
2022-10-17T10:44:32.448Z,76.40
2022-10-17T10:47:09.180Z,76.50
2022-10-17T10:49:43.117Z,76.80
2022-10-17T10:52:25.929Z,76.40
2022-10-17T10:55:18.298Z,76.20
2022-10-17T10:57:47.434Z,75.90
2022-10-17T11:00:21.069Z,75.80
2022-10-17T11:03:12.655Z,75.30
2022-10-17T11:05:45.231Z,75.40
2022-10-17T11:08:38.124Z,74.90
2022-10-17T11:11:38.677Z,75.40
2022-10-17T11:14:42.744Z,75.00
2022-10-17T11:17:34.449Z,74.60
2022-10-17T11:20:28.799Z,74.70
2022-10-17T11:23:21.601Z,74.80
2022-10-17T11:25:53.660Z,74.40
2022-10-17T11:28:22.660Z,74.80
2022-10-17T11:30:57.810Z,75.00
2022-10-17T11:33:39.145Z,74.30
2022-10-17T11:36:09.538Z,73.50
2022-10-17T11:38:46.822Z,73.00
2022-10-17T11:41:27.238Z,72.50
2022-10-17T11:44:00.169Z,72.40
2022-10-17T11:46:28.535Z,72.20
2022-10-17T11:49:05.309Z,71.70
2022-10-17T11:54:29.143Z,70.40
2022-10-17T11:57:30.588Z,70.10
2022-10-17T12:00:20.397Z,69.30
2022-10-17T12:03:31.667Z,69.10
2022-10-17T12:06:29.472Z,68.40
2022-10-17T12:09:11.459Z,67.90
2022-10-17T12:11:41.054Z,66.90
2022-10-17T12:14:35.727Z,68.10
2022-10-17T12:17:04.028Z,68.10
2022-10-17T12:19:35.573Z,68.50
2022-10-17T12:22:26.018Z,68.20
2022-10-17T12:24:57.307Z,67.40
2022-10-17T12:27:31.825Z,64.50
2022-10-17T12:30:23.268Z,65.30
2022-10-17T12:33:06.226Z,64.70
2022-10-17T12:35:36.000Z,63.20
2022-10-17T12:38:18.745Z,63.80
2022-10-17T12:40:48.959Z,62.80
2022-10-17T12:43:15.796Z,62.70
2022-10-17T12:45:59.589Z,64.50
2022-10-17T12:48:37.888Z,65.30
2022-10-17T12:54:02.901Z,65.20
2022-10-17T12:56:49.793Z,66.30
2022-10-17T12:59:25.847Z,66.80
2022-10-17T13:01:59.843Z,64.70
2022-10-17T13:04:28.119Z,63.80
2022-10-17T13:06:58.670Z,64.30
2022-10-17T13:09:28.964Z,65.00
2022-10-17T13:11:58.901Z,64.50
2022-10-17T13:14:26.828Z,64.80
2022-10-17T13:16:56.070Z,64.90
2022-10-17T13:19:29.975Z,65.20
2022-10-17T13:21:59.858Z,64.50
2022-10-17T13:24:35.715Z,64.10
2022-10-17T13:27:03.779Z,64.10
2022-10-17T13:29:32.034Z,63.80
2022-10-17T13:32:05.844Z,63.90
2022-10-17T13:34:33.978Z,65.00
2022-10-17T13:37:03.847Z,65.90
2022-10-17T13:39:54.364Z,64.00
2022-10-17T13:42:30.842Z,61.80
2022-10-17T13:44:59.134Z,63.10
2022-10-17T13:47:29.205Z,63.30
2022-10-17T13:49:57.767Z,62.90
2022-10-17T13:52:28.938Z,64.00
2022-10-17T13:55:06.180Z,65.00
2022-10-17T13:57:33.357Z,64.10
2022-10-17T14:00:09.999Z,63.50
2022-10-17T14:02:40.647Z,62.90
2022-10-17T14:05:19.061Z,62.90
2022-10-17T14:08:12.066Z,62.90
2022-10-17T14:10:42.015Z,63.30
2022-10-17T14:13:20.897Z,63.80
2022-10-17T14:15:47.747Z,62.80
2022-10-17T14:18:18.722Z,62.80
2022-10-17T14:23:43.830Z,62.80
2022-10-17T14:26:15.255Z,62.70
2022-10-17T14:28:43.129Z,62.80
2022-10-17T14:31:15.535Z,62.90
2022-10-17T14:33:50.763Z,63.90
2022-10-17T14:36:19.144Z,63.60
2022-10-17T14:38:48.780Z,63.20
2022-10-17T14:41:44.612Z,62.70
2022-10-17T14:44:19.201Z,63.50
2022-10-17T14:46:50.810Z,63.40
2022-10-17T14:49:26.085Z,63.10
2022-10-17T14:52:17.689Z,63.10
2022-10-17T14:54:49.634Z,63.70
2022-10-17T14:57:19.627Z,63.30
2022-10-17T14:59:55.111Z,63.60
2022-10-17T15:02:26.838Z,63.70
2022-10-17T15:04:53.619Z,64.00
2022-10-17T15:07:24.042Z,64.50
2022-10-17T15:09:52.767Z,64.40
2022-10-17T15:12:23.170Z,64.50
2022-10-17T15:14:50.564Z,64.60
2022-10-17T15:17:23.331Z,64.60
2022-10-17T15:19:50.761Z,64.50
2022-10-17T15:22:18.222Z,64.50
2022-10-17T15:24:48.211Z,64.60
2022-10-17T15:27:23.608Z,64.70
2022-10-17T15:29:51.661Z,64.80
2022-10-17T15:32:18.959Z,64.80
2022-10-17T15:34:45.619Z,64.80
2022-10-17T15:37:23.720Z,64.90
2022-10-17T15:39:55.475Z,65.10
2022-10-17T15:42:26.732Z,65.10
2022-10-17T15:44:53.567Z,65.10
2022-10-17T15:47:26.682Z,65.40
2022-10-17T15:49:54.715Z,65.40
2022-10-17T15:52:22.274Z,65.60
2022-10-17T15:54:49.244Z,65.50
2022-10-17T15:57:28.251Z,65.70
2022-10-17T15:59:57.230Z,65.90
2022-10-17T16:02:24.334Z,65.90
2022-10-17T16:04:52.045Z,66.20
2022-10-17T16:07:20.273Z,66.20
2022-10-17T16:09:47.101Z,66.10
2022-10-17T16:12:26.922Z,66.20
2022-10-17T16:14:53.574Z,66.30
2022-10-17T16:17:20.438Z,66.30
2022-10-17T16:19:47.039Z,66.50
2022-10-17T16:22:32.641Z,66.50
2022-10-17T16:25:07.470Z,66.70
2022-10-17T16:27:34.164Z,66.70
2022-10-17T16:30:01.271Z,67.00
2022-10-17T16:32:28.053Z,67.00
2022-10-17T16:34:54.999Z,67.10
2022-10-17T16:37:21.617Z,67.10
2022-10-17T16:39:52.256Z,67.20
2022-10-17T16:42:20.393Z,67.30
2022-10-17T16:44:47.545Z,67.30
2022-10-17T16:47:14.392Z,67.50
2022-10-17T16:49:44.396Z,67.60
2022-10-17T16:52:12.320Z,67.80
2022-10-17T16:54:38.937Z,67.90
2022-10-17T16:57:07.409Z,68.00
2022-10-17T16:59:34.160Z,68.10
2022-10-17T17:02:00.839Z,68.30
2022-10-17T17:04:27.457Z,68.40
2022-10-17T17:06:54.126Z,68.60
2022-10-17T17:09:20.831Z,68.60
2022-10-17T17:11:47.569Z,68.80
2022-10-17T17:14:14.312Z,68.90
2022-10-17T17:16:40.955Z,69.00
2022-10-17T17:19:11.187Z,69.10
2022-10-17T17:21:37.893Z,69.20
2022-10-17T17:24:05.173Z,69.30
2022-10-17T17:26:36.053Z,69.40
2022-10-17T17:29:03.545Z,69.40
2022-10-17T17:31:32.500Z,69.60
2022-10-17T17:33:59.820Z,69.60
2022-10-17T17:36:29.259Z,69.50
2022-10-17T17:38:58.108Z,69.60
2022-10-17T17:41:25.282Z,69.80
2022-10-17T17:43:52.562Z,69.70
2022-10-17T17:46:23.141Z,69.70
2022-10-17T17:48:51.398Z,69.70
2022-10-17T17:51:25.591Z,69.80
2022-10-17T17:53:56.384Z,69.70
2022-10-17T17:56:28.792Z,69.80
2022-10-17T17:59:00.912Z,69.90
2022-10-17T18:01:31.372Z,70.00
2022-10-17T18:04:03.794Z,70.10
2022-10-17T18:06:30.521Z,70.10
2022-10-17T18:08:59.161Z,70.20
2022-10-17T18:11:27.157Z,70.20
2022-10-17T18:13:59.133Z,70.90
2022-10-17T18:16:27.804Z,70.30
2022-10-17T18:18:54.549Z,70.30
2022-10-17T18:21:22.140Z,70.20
2022-10-17T18:23:49.532Z,70.10
2022-10-17T18:26:16.403Z,70.20
2022-10-17T18:28:43.947Z,70.20
2022-10-17T18:31:18.853Z,70.20
2022-10-17T18:33:45.910Z,70.20
2022-10-17T18:36:15.581Z,70.20
2022-10-17T18:38:42.718Z,70.10
2022-10-17T18:41:12.086Z,70.10
2022-10-17T18:43:40.895Z,70.10
2022-10-17T18:46:21.746Z,70.10
2022-10-17T18:48:49.737Z,70.20
2022-10-17T18:51:20.184Z,70.70
2022-10-17T18:53:49.928Z,70.50
2022-10-17T18:56:17.896Z,70.40
2022-10-17T18:58:45.313Z,70.50
2022-10-17T19:01:17.593Z,70.40
2022-10-17T19:03:47.055Z,70.40
2022-10-17T19:06:15.810Z,70.20
2022-10-17T19:08:43.396Z,70.10
2022-10-17T19:11:18.758Z,70.30
2022-10-17T19:16:23.848Z,70.60
2022-10-17T19:18:56.260Z,71.60
2022-10-17T19:21:23.903Z,71.30
2022-10-17T19:23:56.854Z,71.30
2022-10-17T19:26:24.126Z,71.10
2022-10-17T19:28:53.395Z,70.90
2022-10-17T19:31:27.156Z,70.90
2022-10-17T19:33:55.206Z,72.00
2022-10-17T19:36:26.374Z,71.20
2022-10-17T19:38:56.595Z,71.20
2022-10-17T19:41:23.650Z,71.20
2022-10-17T19:43:50.647Z,71.10
2022-10-17T19:46:20.334Z,71.20
2022-10-17T19:48:48.039Z,71.60
2022-10-17T19:51:16.161Z,71.10
2022-10-17T19:53:44.102Z,71.20
2022-10-17T19:56:11.569Z,72.00
2022-10-17T19:58:44.964Z,72.30
2022-10-17T20:01:14.498Z,72.50
2022-10-17T20:03:41.634Z,72.80
2022-10-17T20:06:09.260Z,72.60
2022-10-17T20:08:37.402Z,72.40
2022-10-17T20:11:10.196Z,72.60
2022-10-17T20:13:37.544Z,72.60
2022-10-17T20:16:06.447Z,73.30
2022-10-17T20:18:33.950Z,72.20
2022-10-17T20:21:15.928Z,72.00
2022-10-17T20:23:43.447Z,72.10
2022-10-17T20:26:39.895Z,72.00
2022-10-17T20:29:08.613Z,72.10
2022-10-17T20:31:35.508Z,72.10
2022-10-17T20:34:04.615Z,72.20
2022-10-17T20:36:32.242Z,72.30
2022-10-17T20:38:59.468Z,72.60
2022-10-17T20:41:27.028Z,73.00
2022-10-17T20:43:55.204Z,73.70
2022-10-17T20:46:35.422Z,73.30
2022-10-17T20:49:03.460Z,73.10
2022-10-17T20:51:30.087Z,73.60
2022-10-17T20:56:30.789Z,74.10
2022-10-17T20:58:59.807Z,73.90
2022-10-17T21:01:28.140Z,74.00
2022-10-17T21:03:55.079Z,74.10
2022-10-17T21:06:23.567Z,74.40
2022-10-17T21:08:53.093Z,74.10
2022-10-17T21:11:22.263Z,74.10
2022-10-17T21:14:03.557Z,74.10
2022-10-17T21:16:31.952Z,73.70
2022-10-17T21:18:59.174Z,74.00
2022-10-17T21:21:29.907Z,73.60
2022-10-17T21:24:00.270Z,73.90
2022-10-17T21:26:27.590Z,74.00
2022-10-17T21:28:54.691Z,73.80
2022-10-17T21:31:25.650Z,73.70
2022-10-17T21:33:57.680Z,73.60
2022-10-17T21:36:25.955Z,73.70
2022-10-17T21:38:54.534Z,75.10
2022-10-17T21:41:23.895Z,74.80
2022-10-17T21:43:59.725Z,75.50
2022-10-17T21:46:26.848Z,75.50
2022-10-17T21:48:56.046Z,74.80
2022-10-17T21:51:24.194Z,74.50
2022-10-17T21:53:52.749Z,74.50
2022-10-17T21:56:22.342Z,74.30
2022-10-17T21:58:50.249Z,74.30
2022-10-17T22:01:22.758Z,74.30
2022-10-17T22:03:53.169Z,74.40
2022-10-17T22:09:15.693Z,74.40
2022-10-17T22:11:45.345Z,74.40
2022-10-17T22:14:13.992Z,74.70
2022-10-17T22:16:41.105Z,74.60
2022-10-17T22:19:08.637Z,74.40
2022-10-17T22:21:36.921Z,74.30
2022-10-17T22:24:07.111Z,74.40
2022-10-17T22:26:35.972Z,74.20
2022-10-17T22:29:04.306Z,74.60
2022-10-17T22:31:31.340Z,74.70
2022-10-17T22:33:57.968Z,74.70
2022-10-17T22:36:24.709Z,75.10
2022-10-17T22:38:51.926Z,75.40
2022-10-17T22:41:18.875Z,75.80
2022-10-17T22:43:45.575Z,75.30
2022-10-17T22:46:14.056Z,75.60
2022-10-17T22:48:40.926Z,76.10
2022-10-17T22:51:07.885Z,75.80
2022-10-17T22:53:35.172Z,76.00
2022-10-17T22:56:03.419Z,76.20
2022-10-17T22:58:31.753Z,76.50
2022-10-17T23:00:58.958Z,75.90
2022-10-17T23:03:27.632Z,75.70
2022-10-17T23:05:54.843Z,75.50
2022-10-17T23:08:21.444Z,75.50
2022-10-17T23:10:48.451Z,75.50
2022-10-17T23:13:16.025Z,75.40
2022-10-17T23:15:43.337Z,75.30
2022-10-17T23:18:10.468Z,75.50
2022-10-17T23:20:37.825Z,76.10
2022-10-17T23:23:05.015Z,76.20
2022-10-17T23:25:34.296Z,76.90
2022-10-17T23:28:02.957Z,75.80
2022-10-17T23:30:31.733Z,76.00
2022-10-17T23:32:58.431Z,76.60
2022-10-17T23:35:25.109Z,76.80
2022-10-17T23:37:51.919Z,76.10
2022-10-17T23:40:21.156Z,75.80
2022-10-17T23:42:47.855Z,75.70
2022-10-17T23:45:14.542Z,75.60
2022-10-17T23:47:41.164Z,75.80
2022-10-17T23:50:08.164Z,76.50
2022-10-17T23:52:34.837Z,76.90
2022-10-17T23:55:01.443Z,77.70
2022-10-17T23:57:28.250Z,78.40
2022-10-17T23:59:55.407Z,77.60
